CHN weather

Wauchula Municipal Airport
Wauchula, Florida, United States

Public forecast

Using degrees Fahrenheit for public forecast. Weather courtesy of forecast.io.

Closest aviation weather report (METAR) to Wauchula Municipal Airport

Closest report is Bartow Executive Airport, 26.2 nm (48.6 km) NNE. Retrieved 2020/07/03 11:50 UTC (51 minutes ago):

KBOW 031150Z 00000KT 10SM SKC 25/24 A2996

Closest aviation forecast (TAF) to Wauchula Municipal Airport

Closest forecast is Lakeland Linder International Airport, 29.4 nm (54.4 km) NNW. Retrieved 2020/07/03 12:28 UTC (13 minutes ago):

TAF KLAL 031126Z 0312/0412 VRB03KT P6SM VCSH SCT030 SCT250 FM031800 26007KT P6SM SCT030 BKN200 FM040300 VRB03KT P6SM FEW030 SCT200 FM041100 23003KT P6SM VCSH SCT030 SCT200